Time;durP1;ratioP1;P1;durP2;ratioP2;P2;SDS_P1;SDS_P2;PMS_P1;PMS_P2;Temp;Humidity;BMP_temperature;BMP_pressure;BME280_temperature;BME280_humidity;BME280_pressure;Samples;Min_cycle;Max_cycle;Signal;HPM_P1;HPM_P2
2024/02/15 00:00:52;;;;;;;2.25;1.15;;;22.80;54.50;;;;;;6151408;22;88880;-61
2024/02/15 00:03:17;;;;;;;2.47;1.63;;;22.80;54.50;;;;;;6151973;22;87692;-61
2024/02/15 00:05:45;;;;;;;2.38;1.17;;;22.80;54.40;;;;;;6151595;22;88563;-61
2024/02/15 00:08:12;;;;;;;2.65;1.40;;;22.70;54.50;;;;;;6150091;22;87338;-60
2024/02/15 00:10:39;;;;;;;2.50;1.48;;;22.70;54.50;;;;;;6126088;22;88746;-62
2024/02/15 00:13:06;;;;;;;2.22;1.17;;;22.70;54.60;;;;;;6124867;22;88401;-61
2024/02/15 00:15:34;;;;;;;1.95;1.35;;;22.70;54.70;;;;;;6124759;22;87630;-61
2024/02/15 00:18:00;;;;;;;3.88;1.50;;;22.60;54.60;;;;;;6123753;22;87572;-61
2024/02/15 00:20:25;;;;;;;1.42;1.20;;;22.60;54.70;;;;;;6124930;22;89293;-61
2024/02/15 00:22:52;;;;;;;2.22;1.30;;;22.60;54.70;;;;;;6126685;22;87132;-61
2024/02/15 00:25:19;;;;;;;2.92;1.70;;;22.60;54.60;;;;;;6123702;22;87707;-61
2024/02/15 00:27:45;;;;;;;2.40;1.30;;;22.60;54.70;;;;;;6149959;22;87044;-61
2024/02/15 00:30:11;;;;;;;3.15;1.52;;;22.60;54.90;;;;;;6150627;22;89397;-61
2024/02/15 00:32:39;;;;;;;2.47;1.58;;;22.60;54.80;;;;;;6121947;22;87775;-61
2024/02/15 00:35:09;;;;;;;2.65;1.20;;;22.50;54.80;;;;;;6123984;22;87700;-61
2024/02/15 00:37:35;;;;;;;2.30;1.33;;;22.50;54.80;;;;;;6124470;22;87937;-61
2024/02/15 00:40:03;;;;;;;2.17;1.23;;;22.50;54.70;;;;;;6150209;22;88029;-61
2024/02/15 00:42:31;;;;;;;2.58;1.23;;;22.50;54.90;;;;;;6146418;22;87706;-61
2024/02/15 00:44:58;;;;;;;1.58;1.20;;;22.50;54.90;;;;;;6123851;22;87472;-61
2024/02/15 00:47:23;;;;;;;2.28;1.27;;;22.40;55.00;;;;;;6152565;22;86281;-62
2024/02/15 00:49:50;;;;;;;1.88;1.27;;;22.40;54.90;;;;;;6099955;22;88274;-61
2024/02/15 00:52:18;;;;;;;2.08;1.15;;;22.40;54.60;;;;;;6150761;22;87752;-61
2024/02/15 00:54:45;;;;;;;1.90;1.10;;;22.40;54.70;;;;;;6151539;22;87797;-61
2024/02/15 00:57:11;;;;;;;2.60;1.20;;;22.40;54.70;;;;;;6124224;22;87826;-61
2024/02/15 00:59:39;;;;;;;3.75;1.35;;;22.40;54.80;;;;;;6124602;22;89552;-62
2024/02/15 01:02:07;;;;;;;1.98;1.13;;;22.30;54.90;;;;;;6123487;22;88657;-61
2024/02/15 01:04:34;;;;;;;2.27;1.13;;;22.40;54.80;;;;;;6151446;22;88196;-61
2024/02/15 01:07:00;;;;;;;1.45;1.00;;;22.30;54.70;;;;;;6123371;22;87538;-61
2024/02/15 01:09:26;;;;;;;1.50;1.05;;;22.30;54.80;;;;;;6150908;22;87933;-62
2024/02/15 01:11:52;;;;;;;2.30;1.38;;;22.30;54.90;;;;;;6152851;22;87211;-62
2024/02/15 01:14:17;;;;;;;1.98;0.98;;;22.30;55.00;;;;;;6124898;22;87407;-61
2024/02/15 01:16:44;;;;;;;2.83;1.35;;;22.20;54.90;;;;;;6153191;22;86817;-61
2024/02/15 01:19:10;;;;;;;2.85;1.50;;;22.20;54.70;;;;;;6151423;22;88403;-62
2024/02/15 01:21:36;;;;;;;2.25;1.35;;;22.20;54.70;;;;;;6151797;22;88591;-61
2024/02/15 01:24:06;;;;;;;2.35;1.50;;;22.20;54.70;;;;;;6152306;22;87165;-61
2024/02/15 01:26:32;;;;;;;2.60;1.00;;;22.20;54.60;;;;;;6123754;22;87079;-61
2024/02/15 01:28:58;;;;;;;2.08;1.05;;;22.20;54.90;;;;;;6151912;22;87609;-61
2024/02/15 01:31:24;;;;;;;1.80;1.48;;;22.20;54.80;;;;;;6124850;22;88901;-61
2024/02/15 01:33:50;;;;;;;2.47;1.25;;;22.20;55.00;;;;;;6151144;22;87089;-61
2024/02/15 01:36:17;;;;;;;3.35;1.42;;;22.20;55.00;;;;;;6100309;22;86240;-64
2024/02/15 01:38:44;;;;;;;2.17;1.10;;;22.20;55.00;;;;;;6151144;22;88144;-64
2024/02/15 01:41:09;;;;;;;2.22;1.45;;;22.10;54.90;;;;;;6146538;22;86919;-61
2024/02/15 01:43:36;;;;;;;3.70;1.40;;;22.10;55.00;;;;;;6124300;22;88526;-63
2024/02/15 01:46:08;;;;;;;1.70;1.00;;;22.10;55.10;;;;;;6151605;22;87253;-61
2024/02/15 01:48:35;;;;;;;1.42;0.95;;;22.10;55.00;;;;;;6124073;22;89477;-61
2024/02/15 01:51:01;;;;;;;1.92;1.23;;;22.10;55.10;;;;;;6151666;22;87898;-61
2024/02/15 01:53:27;;;;;;;2.47;1.25;;;22.10;55.10;;;;;;6151868;22;87376;-62
2024/02/15 01:55:55;;;;;;;1.17;0.82;;;22.10;55.00;;;;;;6125481;22;87540;-61
2024/02/15 01:58:21;;;;;;;1.67;1.23;;;22.00;55.60;;;;;;6152082;22;88487;-64
2024/02/15 02:00:48;;;;;;;1.67;1.00;;;22.00;55.00;;;;;;6149837;22;87167;-63
2024/02/15 02:03:15;;;;;;;1.77;1.02;;;22.00;55.10;;;;;;6151737;22;87502;-64
2024/02/15 02:05:45;;;;;;;1.40;0.95;;;22.10;55.10;;;;;;6118924;22;87652;-62
2024/02/15 02:08:10;;;;;;;1.65;1.10;;;22.00;54.90;;;;;;6122797;22;89461;-61
2024/02/15 02:10:41;;;;;;;2.97;1.33;;;22.00;55.00;;;;;;6151097;22;88635;-61
2024/02/15 02:13:07;;;;;;;3.20;1.38;;;22.00;54.90;;;;;;6123612;22;87405;-64
2024/02/15 02:15:33;;;;;;;1.52;1.25;;;22.00;55.10;;;;;;6152195;22;87139;-62
2024/02/15 02:18:00;;;;;;;2.42;1.45;;;22.00;55.10;;;;;;6152340;22;88053;-61
2024/02/15 02:20:26;;;;;;;1.73;1.17;;;21.90;55.00;;;;;;6099123;22;87349;-61
2024/02/15 02:22:57;;;;;;;2.83;1.30;;;21.90;55.00;;;;;;6152390;22;87207;-62
2024/02/15 02:25:26;;;;;;;1.75;1.00;;;21.90;55.00;;;;;;6150555;22;91467;-62
2024/02/15 02:27:51;;;;;;;2.05;1.45;;;21.90;55.00;;;;;;6124539;22;88836;-61
2024/02/15 02:30:18;;;;;;;1.27;1.00;;;21.90;54.90;;;;;;6151658;22;87686;-64
2024/02/15 02:32:48;;;;;;;3.63;1.30;;;21.90;55.00;;;;;;6123371;22;88316;-61
2024/02/15 02:35:15;;;;;;;1.52;1.10;;;21.90;55.00;;;;;;6151679;22;86917;-62
2024/02/15 02:37:42;;;;;;;1.90;1.05;;;21.90;55.10;;;;;;6152845;22;87385;-62
2024/02/15 02:40:09;;;;;;;1.67;1.17;;;21.90;55.00;;;;;;6146601;22;87488;-64
2024/02/15 02:43:01;;;;;;;1.95;1.33;;;21.80;55.10;;;;;;6147647;22;87032;-64
2024/02/15 02:45:28;;;;;;;1.80;1.00;;;21.80;55.00;;;;;;6151466;22;87178;-64
2024/02/15 02:47:54;;;;;;;2.38;1.48;;;21.80;55.10;;;;;;6122963;22;90799;-64
2024/02/15 02:50:23;;;;;;;2.30;1.15;;;21.80;55.10;;;;;;6152383;22;87781;-64
2024/02/15 02:52:49;;;;;;;;;;;21.80;55.10;;;;;;6126134;22;86888;-61
2024/02/15 02:55:15;;;;;;;1.85;1.10;;;21.80;55.10;;;;;;6147014;22;87164;-61
2024/02/15 02:57:42;;;;;;;1.23;1.00;;;21.80;55.20;;;;;;6149271;22;89616;-61
2024/02/15 03:00:16;;;;;;;1.95;1.25;;;21.80;55.10;;;;;;6149869;22;88571;-62
2024/02/15 03:02:46;;;;;;;2.22;1.25;;;21.80;55.20;;;;;;6150740;22;87275;-62
2024/02/15 03:05:13;;;;;;;1.52;0.90;;;21.80;55.00;;;;;;6145153;22;87143;-62
2024/02/15 03:07:42;;;;;;;1.90;1.05;;;21.80;55.10;;;;;;6124507;22;89397;-62
2024/02/15 03:10:09;;;;;;;2.80;1.13;;;21.80;55.00;;;;;;6148729;22;87770;-61
2024/02/15 03:12:36;;;;;;;1.95;1.42;;;21.70;54.90;;;;;;6124554;22;87438;-61
2024/02/15 03:15:11;;;;;;;1.52;1.00;;;21.70;54.90;;;;;;6121074;22;87349;-62
2024/02/15 03:17:40;;;;;;;1.20;1.00;;;21.70;54.90;;;;;;6150346;22;88405;-61
2024/02/15 03:20:24;;;;;;;2.10;1.13;;;21.70;54.90;;;;;;6150885;22;87845;-62
2024/02/15 03:23:00;;;;;;;1.80;1.10;;;21.70;55.00;;;;;;6153278;22;88441;-61
2024/02/15 03:25:28;;;;;;;2.20;1.25;;;21.70;55.00;;;;;;6122962;22;89892;-61
2024/02/15 03:27:58;;;;;;;1.75;1.00;;;21.70;54.90;;;;;;6148786;22;88465;-61
2024/02/15 03:30:26;;;;;;;1.98;1.10;;;21.60;55.20;;;;;;6150177;22;87568;-62
2024/02/15 03:32:53;;;;;;;2.13;1.23;;;21.60;55.10;;;;;;6150608;22;87034;-63
2024/02/15 03:35:22;;;;;;;1.35;0.95;;;21.70;54.90;;;;;;6126392;22;88351;-62
2024/02/15 03:37:51;;;;;;;2.17;1.07;;;21.70;55.00;;;;;;6153055;22;88461;-64
2024/02/15 03:40:17;;;;;;;2.42;1.10;;;21.60;55.10;;;;;;6150342;22;87769;-65
2024/02/15 03:42:43;;;;;;;1.83;1.00;;;21.60;55.10;;;;;;6124616;22;86889;-62
2024/02/15 03:45:10;;;;;;;1.38;0.98;;;21.60;55.20;;;;;;6151080;22;87306;-61
2024/02/15 03:47:36;;;;;;;2.63;1.20;;;21.60;55.20;;;;;;6150862;22;88950;-62
2024/02/15 03:50:08;;;;;;;1.13;0.90;;;21.60;55.20;;;;;;6151430;22;89093;-61
2024/02/15 03:52:33;;;;;;;2.25;1.10;;;21.60;55.20;;;;;;6150736;22;87181;-61
2024/02/15 03:54:59;;;;;;;1.77;0.98;;;21.60;55.00;;;;;;6124119;22;87287;-64
2024/02/15 03:57:26;;;;;;;1.52;0.82;;;21.60;55.20;;;;;;6150494;22;87585;-64
2024/02/15 03:59:54;;;;;;;1.70;1.00;;;21.60;55.10;;;;;;6098200;22;88493;-64
2024/02/15 04:02:20;;;;;;;1.55;1.13;;;21.60;55.20;;;;;;6149453;22;87284;-65
2024/02/15 04:04:49;;;;;;;1.80;1.38;;;21.60;55.10;;;;;;6153587;22;86854;-63
2024/02/15 04:07:17;;;;;;;1.65;1.17;;;21.60;55.20;;;;;;6151551;22;88141;-61
2024/02/15 04:09:43;;;;;;;1.17;1.00;;;21.60;55.20;;;;;;6125166;22;89887;-61
2024/02/15 04:12:12;;;;;;;1.73;0.98;;;21.60;55.10;;;;;;6150225;22;87864;-61
2024/02/15 04:14:38;;;;;;;1.60;1.00;;;21.50;55.00;;;;;;6125693;22;87503;-62
2024/02/15 04:17:04;;;;;;;2.42;1.33;;;21.60;55.20;;;;;;6151449;22;87532;-61
2024/02/15 04:19:31;;;;;;;2.40;1.42;;;21.50;55.10;;;;;;6151819;22;88052;-62
2024/02/15 04:21:57;;;;;;;2.08;1.25;;;21.50;55.10;;;;;;6151400;22;87122;-61
2024/02/15 04:24:23;;;;;;;1.83;1.30;;;21.50;55.20;;;;;;6150911;22;86988;-63
2024/02/15 04:26:49;;;;;;;1.92;1.05;;;21.50;55.10;;;;;;6151890;22;88020;-64
2024/02/15 04:29:15;;;;;;;1.40;0.98;;;21.50;55.00;;;;;;6125249;22;87609;-64
2024/02/15 04:31:43;;;;;;;2.25;1.42;;;21.50;55.10;;;;;;6126267;22;87451;-63
2024/02/15 04:34:09;;;;;;;1.75;1.00;;;21.50;55.10;;;;;;6152509;22;86855;-64
2024/02/15 04:36:36;;;;;;;1.27;0.93;;;21.50;55.10;;;;;;6151220;22;89541;-64
2024/02/15 04:39:05;;;;;;;2.35;1.30;;;21.50;55.10;;;;;;6124064;22;89350;-64
2024/02/15 04:41:31;;;;;;;1.42;0.85;;;21.50;55.10;;;;;;6148773;22;86824;-64
2024/02/15 04:43:57;;;;;;;1.58;0.90;;;21.50;55.10;;;;;;6151287;22;87199;-64
2024/02/15 04:46:22;;;;;;;1.27;0.98;;;21.50;55.20;;;;;;6125469;22;88331;-65
2024/02/15 04:48:51;;;;;;;1.90;1.02;;;21.50;55.00;;;;;;6150103;22;88144;-64
2024/02/15 04:51:19;;;;;;;1.55;0.98;;;21.50;55.10;;;;;;6149841;22;86918;-62
2024/02/15 04:53:46;;;;;;;1.30;0.80;;;21.40;55.10;;;;;;6151201;22;86684;-61
2024/02/15 04:56:13;;;;;;;2.55;1.10;;;21.50;55.20;;;;;;6124488;22;88567;-61
2024/02/15 04:58:47;;;;;;;1.67;1.00;;;21.50;55.30;;;;;;6151632;22;88128;-63
2024/02/15 05:01:16;;;;;;;1.95;1.05;;;21.40;55.20;;;;;;6148716;22;88247;-62
2024/02/15 05:03:43;;;;;;;;;;;21.40;55.20;;;;;;6124834;22;87484;-61
2024/02/15 05:06:09;;;;;;;1.38;0.88;;;21.40;55.20;;;;;;6125017;22;88351;-61
2024/02/15 05:08:38;;;;;;;1.02;0.93;;;21.40;55.10;;;;;;6150268;22;87998;-64
2024/02/15 05:11:12;;;;;;;2.30;1.10;;;21.40;55.10;;;;;;6145801;22;87186;-62
2024/02/15 05:13:41;;;;;;;1.77;1.13;;;21.40;55.20;;;;;;6125004;22;88234;-61
2024/02/15 05:16:08;;;;;;;2.08;1.10;;;21.40;55.20;;;;;;6124186;22;88874;-61
2024/02/15 05:18:35;;;;;;;1.50;0.90;;;21.40;55.10;;;;;;6118732;22;87849;-64
2024/02/15 05:21:03;;;;;;;1.52;1.05;;;21.40;55.10;;;;;;6096743;22;86881;-64
2024/02/15 05:23:29;;;;;;;1.08;0.93;;;21.40;55.10;;;;;;6146247;22;87523;-63
2024/02/15 05:25:56;;;;;;;1.25;0.90;;;21.30;55.00;;;;;;6151195;22;88201;-63
2024/02/15 05:28:26;;;;;;;1.45;0.82;;;21.30;55.00;;;;;;6123213;22;93537;-64
2024/02/15 05:31:20;;;;;;;1.52;1.00;;;21.30;55.10;;;;;;6147823;22;87362;-63
2024/02/15 05:33:51;;;;;;;1.95;1.05;;;21.40;55.30;;;;;;6117935;22;87804;-64
2024/02/15 05:36:20;;;;;;;1.48;0.80;;;21.30;55.20;;;;;;6151173;22;89013;-63
2024/02/15 05:38:51;;;;;;;1.35;0.90;;;21.30;55.20;;;;;;6123034;22;88914;-63
2024/02/15 05:41:17;;;;;;;1.63;0.93;;;21.30;55.20;;;;;;6151431;22;87130;-64
2024/02/15 05:43:46;;;;;;;1.27;0.85;;;21.30;55.10;;;;;;6151235;22;87954;-63
2024/02/15 05:46:12;;;;;;;1.50;0.88;;;21.30;55.10;;;;;;6120759;22;88373;-63
2024/02/15 05:48:40;;;;;;;1.45;0.77;;;21.30;55.20;;;;;;6150240;22;87223;-64
2024/02/15 05:51:08;;;;;;;1.40;0.80;;;21.30;55.30;;;;;;6121863;22;88488;-65
2024/02/15 05:53:37;;;;;;;1.65;1.10;;;21.30;55.20;;;;;;6117727;22;87343;-63
2024/02/15 05:56:07;;;;;;;1.08;0.90;;;21.30;55.30;;;;;;6119372;22;88730;-62
2024/02/15 05:58:32;;;;;;;;;;;21.30;55.20;;;;;;6124249;22;89690;-63
2024/02/15 06:01:02;;;;;;;1.80;0.82;;;21.30;55.10;;;;;;6148539;22;87558;-63
2024/02/15 06:03:31;;;;;;;1.85;1.05;;;21.30;55.20;;;;;;6118093;22;89411;-63
2024/02/15 06:05:58;;;;;;;1.63;1.17;;;21.30;55.10;;;;;;6125200;22;88594;-64
2024/02/15 06:08:27;;;;;;;1.60;1.00;;;21.30;55.40;;;;;;6149381;22;88396;-63
2024/02/15 06:10:55;;;;;;;2.25;1.35;;;21.30;55.10;;;;;;6125759;22;87498;-63
2024/02/15 06:13:23;;;;;;;0.98;0.82;;;21.20;55.10;;;;;;6120313;22;87606;-62
2024/02/15 06:15:52;;;;;;;1.73;0.95;;;21.20;55.20;;;;;;6119979;22;88923;-63
2024/02/15 06:18:21;;;;;;;;;;;21.20;55.10;;;;;;6119242;22;91918;-62
2024/02/15 06:20:49;;;;;;;1.33;0.90;;;21.20;55.10;;;;;;6152683;22;87369;-62
2024/02/15 06:23:16;;;;;;;1.13;0.60;;;21.20;55.00;;;;;;6117342;22;88832;-63
2024/02/15 06:25:41;;;;;;;0.75;0.73;;;21.20;55.10;;;;;;6100995;22;90435;-63
2024/02/15 06:41:56;;;;;;;1.20;0.90;;;21.20;55.30;;;;;;6150121;22;88011;-63
2024/02/15 06:44:24;;;;;;;1.02;0.80;;;21.20;55.30;;;;;;6112939;22;87571;-62
2024/02/15 06:46:51;;;;;;;1.48;0.73;;;21.20;55.40;;;;;;6152228;22;88601;-62
2024/02/15 06:49:16;;;;;;;1.75;0.90;;;21.20;55.20;;;;;;6125064;22;88301;-62
2024/02/15 06:51:44;;;;;;;0.80;0.70;;;21.20;55.20;;;;;;6122821;22;87165;-62
2024/02/15 06:54:11;;;;;;;1.35;0.80;;;21.20;55.30;;;;;;6120943;22;87413;-63
2024/02/15 06:56:38;;;;;;;0.80;0.70;;;21.20;55.20;;;;;;6123768;22;89426;-64
2024/02/15 06:59:03;;;;;;;1.88;1.40;;;21.20;55.30;;;;;;6107774;22;89074;-63
2024/02/15 07:01:29;;;;;;;1.88;0.98;;;21.20;55.40;;;;;;6152794;22;87204;-62
2024/02/15 07:03:55;;;;;;;1.85;0.90;;;21.20;55.60;;;;;;6150711;22;87009;-62
2024/02/15 07:06:27;;;;;;;1.20;0.93;;;21.10;55.60;;;;;;6124206;22;89944;-63
2024/02/15 07:08:55;;;;;;;2.47;1.15;;;21.20;56.30;;;;;;6123488;22;88619;-64
2024/02/15 07:11:24;;;;;;;0.77;0.75;;;21.20;56.00;;;;;;6148537;22;87333;-63
2024/02/15 07:13:54;;;;;;;2.08;1.10;;;21.30;55.90;;;;;;6124125;22;87180;-63
2024/02/15 07:16:20;;;;;;;1.77;0.95;;;21.30;56.00;;;;;;6148242;22;88025;-64
2024/02/15 07:18:46;;;;;;;3.17;1.20;;;21.40;55.90;;;;;;6148772;22;87659;-63
2024/02/15 07:21:16;;;;;;;2.30;1.45;;;21.50;55.70;;;;;;6150502;22;87212;-64
2024/02/15 07:23:42;;;;;;;1.25;0.90;;;21.60;55.80;;;;;;6141304;22;87589;-64
2024/02/15 07:26:08;;;;;;;2.30;0.88;;;21.70;55.80;;;;;;6145415;22;88187;-64
2024/02/15 07:28:34;;;;;;;2.55;0.88;;;21.80;55.70;;;;;;6121948;22;87919;-64
2024/02/15 07:31:02;;;;;;;0.88;0.82;;;21.80;55.60;;;;;;6142766;22;88555;-64
2024/02/15 07:33:29;;;;;;;1.33;0.75;;;21.90;55.60;;;;;;6150835;22;87005;-65
2024/02/15 07:35:56;;;;;;;2.42;0.98;;;21.90;55.50;;;;;;6148891;22;87579;-63
2024/02/15 07:38:25;;;;;;;1.10;0.80;;;21.90;55.40;;;;;;6150158;22;87463;-64
2024/02/15 07:40:55;;;;;;;2.80;1.23;;;22.00;55.50;;;;;;6150521;22;87766;-64
2024/02/15 07:43:23;;;;;;;1.55;1.30;;;22.10;55.20;;;;;;6120963;22;88122;-65
2024/02/15 07:45:52;;;;;;;1.95;0.77;;;22.10;55.40;;;;;;6122150;22;88312;-65
2024/02/15 07:48:19;;;;;;;2.65;1.02;;;22.10;55.30;;;;;;6124205;22;88444;-63
2024/02/15 07:50:45;;;;;;;1.52;0.88;;;22.20;55.30;;;;;;6123801;22;87569;-64
2024/02/15 07:53:11;;;;;;;1.67;1.00;;;22.20;55.30;;;;;;6140853;22;87617;-64
2024/02/15 07:55:37;;;;;;;3.20;1.10;;;22.20;55.10;;;;;;6122164;22;89760;-63
2024/02/15 07:58:04;;;;;;;3.88;1.45;;;22.20;55.00;;;;;;6125193;22;89229;-64
2024/02/15 08:00:30;;;;;;;4.05;1.55;;;22.20;55.00;;;;;;6152136;22;87510;-64
2024/02/15 08:03:00;;;;;;;5.05;1.60;;;22.20;55.60;;;;;;6122831;22;87845;-63
2024/02/15 08:05:26;;;;;;;6.65;2.47;;;22.20;54.80;;;;;;6151255;22;88069;-64
2024/02/15 08:07:57;;;;;;;5.85;2.10;;;22.30;55.00;;;;;;6123877;22;88568;-63
2024/02/15 08:10:23;;;;;;;6.30;1.75;;;22.30;55.10;;;;;;6150734;22;87238;-63
2024/02/15 08:12:52;;;;;;;6.82;2.25;;;22.40;55.20;;;;;;6150753;22;86710;-63
2024/02/15 08:15:18;;;;;;;5.47;2.05;;;22.40;55.30;;;;;;6149911;22;87969;-63
2024/02/15 08:17:51;;;;;;;5.72;1.80;;;22.40;55.30;;;;;;6149856;22;87332;-63
2024/02/15 08:20:21;;;;;;;6.53;1.67;;;22.40;55.20;;;;;;6123913;22;87873;-63
2024/02/15 08:22:47;;;;;;;5.50;1.95;;;22.40;55.30;;;;;;6151480;22;86930;-62
2024/02/15 08:25:18;;;;;;;7.15;2.03;;;22.40;55.20;;;;;;6150730;22;87958;-64
2024/02/15 08:27:49;;;;;;;7.80;1.70;;;22.40;55.00;;;;;;6121511;22;88435;-63
2024/02/15 08:30:16;;;;;;;5.32;1.65;;;22.50;55.30;;;;;;6152358;22;86993;-63
2024/02/15 08:32:47;;;;;;;9.00;2.13;;;22.50;55.50;;;;;;6124191;22;89561;-65
2024/02/15 08:35:13;;;;;;;6.00;1.90;;;22.50;55.80;;;;;;6116278;22;88397;-63
2024/02/15 08:37:41;;;;;;;10.20;2.75;;;22.60;56.00;;;;;;6151389;22;87615;-63
2024/02/15 08:40:11;;;;;;;6.28;2.17;;;22.60;56.00;;;;;;6142814;22;87120;-63
2024/02/15 08:42:42;;;;;;;5.30;2.10;;;22.60;56.20;;;;;;6134675;22;87381;-63
2024/02/15 08:45:09;;;;;;;10.02;2.35;;;22.70;56.40;;;;;;6122672;22;89427;-63
2024/02/15 08:47:40;;;;;;;16.77;3.47;;;22.70;56.30;;;;;;6138880;22;88205;-62
2024/02/15 08:50:10;;;;;;;10.07;2.45;;;22.70;56.40;;;;;;6148109;22;87486;-63
2024/02/15 08:52:40;;;;;;;8.18;2.20;;;22.70;56.60;;;;;;6151649;22;87130;-64
2024/02/15 08:55:09;;;;;;;8.95;3.17;;;22.80;56.60;;;;;;6121702;22;88824;-63
2024/02/15 08:57:35;;;;;;;9.80;3.10;;;22.80;57.00;;;;;;6149626;22;87725;-61
2024/02/15 09:00:05;;;;;;;9.70;3.03;;;22.90;57.10;;;;;;6151979;22;87389;-60
2024/02/15 09:02:32;;;;;;;8.00;2.53;;;22.90;57.20;;;;;;6148592;22;86867;-60
2024/02/15 09:04:59;;;;;;;11.05;2.92;;;22.80;57.50;;;;;;6122191;22;89063;-60
2024/02/15 09:07:24;;;;;;;11.73;4.50;;;22.80;57.30;;;;;;6124972;22;88023;-67
2024/02/15 09:09:50;;;;;;;15.75;5.00;;;22.90;58.00;;;;;;6150538;22;88239;-73
2024/02/15 09:12:16;;;;;;;20.58;6.70;;;22.80;57.70;;;;;;6125495;22;87978;-61
2024/02/15 09:14:41;;;;;;;26.17;10.35;;;22.90;59.40;;;;;;6124869;22;88741;-61
2024/02/15 09:17:07;;;;;;;17.23;6.28;;;22.90;60.30;;;;;;6093271;22;90605;-61
2024/02/15 09:19:36;;;;;;;12.75;5.40;;;22.90;59.60;;;;;;6150812;22;87653;-61
2024/02/15 09:22:04;;;;;;;14.73;5.63;;;22.90;59.40;;;;;;6095531;22;87877;-60
2024/02/15 09:24:32;;;;;;;15.82;6.20;;;22.90;59.10;;;;;;6146466;22;88617;-60
2024/02/15 09:26:58;;;;;;;15.63;5.93;;;23.00;59.60;;;;;;6148603;22;87650;-60
2024/02/15 09:29:24;;;;;;;15.25;5.82;;;23.00;59.00;;;;;;6149117;22;87008;-60
2024/02/15 09:31:52;;;;;;;17.10;5.50;;;23.00;59.10;;;;;;6152148;22;87205;-61
2024/02/15 09:34:19;;;;;;;13.55;5.50;;;23.00;59.00;;;;;;6124118;22;88507;-60
2024/02/15 09:36:46;;;;;;;13.80;5.53;;;23.00;59.30;;;;;;6123002;22;89450;-60
2024/02/15 09:39:13;;;;;;;13.35;6.03;;;23.00;59.20;;;;;;6123204;22;87461;-60
2024/02/15 09:41:42;;;;;;;15.20;6.25;;;23.00;59.30;;;;;;6122275;22;88689;-60
2024/02/15 09:44:08;;;;;;;13.70;5.65;;;23.00;60.20;;;;;;6118614;22;88894;-61
2024/02/15 09:46:36;;;;;;;14.52;5.45;;;23.00;59.00;;;;;;6150541;22;87170;-60
2024/02/15 09:49:04;;;;;;;16.83;6.30;;;23.00;58.50;;;;;;6151493;22;87281;-61
2024/02/15 09:51:33;;;;;;;14.23;5.93;;;23.00;58.40;;;;;;6124361;22;86669;-60
2024/02/15 09:54:01;;;;;;;15.82;5.38;;;23.00;59.00;;;;;;6149629;22;88140;-61
2024/02/15 09:56:30;;;;;;;14.40;5.40;;;23.10;59.10;;;;;;6124647;22;87150;-60
2024/02/15 09:58:56;;;;;;;13.35;4.65;;;23.10;59.10;;;;;;6152396;22;88200;-62
2024/02/15 10:01:24;;;;;;;12.63;5.22;;;23.10;58.90;;;;;;6150980;22;90141;-60
2024/02/15 10:03:52;;;;;;;10.30;4.72;;;23.10;59.30;;;;;;6151760;22;87601;-61
2024/02/15 10:06:20;;;;;;;12.70;5.15;;;23.10;59.50;;;;;;6124062;22;88670;-60
2024/02/15 10:08:47;;;;;;;14.07;5.18;;;23.10;59.40;;;;;;6123349;22;86828;-62
2024/02/15 10:11:13;;;;;;;12.07;4.85;;;23.20;59.40;;;;;;6123389;22;88123;-62
2024/02/15 10:13:44;;;;;;;10.63;4.25;;;23.20;59.10;;;;;;6151881;22;87601;-61
2024/02/15 10:16:18;;;;;;;11.68;5.10;;;23.10;58.80;;;;;;6149661;22;87922;-62
2024/02/15 10:18:48;;;;;;;13.48;4.95;;;23.20;59.00;;;;;;6142588;22;87003;-62
2024/02/15 10:21:25;;;;;;;9.57;4.28;;;23.20;59.20;;;;;;6115882;22;87288;-61
2024/02/15 10:24:08;;;;;;;12.32;4.63;;;23.20;59.50;;;;;;6122344;22;91891;-62
2024/02/15 10:26:35;;;;;;;12.68;4.22;;;23.20;59.10;;;;;;6149018;22;89593;-61
2024/02/15 10:29:08;;;;;;;11.63;4.65;;;23.20;58.80;;;;;;6148706;22;90574;-60
2024/02/15 10:31:35;;;;;;;10.23;3.95;;;23.30;58.70;;;;;;6151489;22;86865;-61
2024/02/15 10:34:07;;;;;;;6.93;3.25;;;23.20;58.20;;;;;;6146117;22;88233;-60
2024/02/15 10:36:34;;;;;;;7.20;3.60;;;23.30;58.20;;;;;;6151569;22;87457;-60
2024/02/15 10:39:19;;;;;;;9.45;3.55;;;23.40;58.40;;;;;;6148574;22;87308;-61
2024/02/15 10:41:53;;;;;;;7.10;3.40;;;23.30;58.50;;;;;;6140639;22;87355;-61
2024/02/15 10:44:21;;;;;;;8.73;3.50;;;23.30;58.20;;;;;;6151450;22;88035;-61
2024/02/15 10:46:50;;;;;;;13.13;3.97;;;23.40;58.30;;;;;;6151132;22;87546;-60
2024/02/15 10:49:23;;;;;;;11.50;4.53;;;23.30;58.60;;;;;;6114569;22;88301;-60
2024/02/15 10:52:04;;;;;;;9.70;3.78;;;23.30;58.60;;;;;;6147414;22;87305;-60
2024/02/15 10:55:03;;;;;;;7.38;3.60;;;23.30;58.60;;;;;;6149028;22;87283;-60
2024/02/15 10:57:32;;;;;;;8.88;3.75;;;23.30;58.40;;;;;;6148829;22;88548;-61
2024/02/15 11:00:00;;;;;;;;;;;23.30;58.00;;;;;;6152213;22;87356;-61
2024/02/15 11:02:34;;;;;;;8.63;3.30;;;23.40;57.80;;;;;;6124745;22;87332;-62
2024/02/15 11:05:12;;;;;;;9.90;3.78;;;23.40;57.70;;;;;;6150467;22;88665;-61
2024/02/15 11:07:39;;;;;;;10.57;3.40;;;23.40;57.50;;;;;;6151858;22;87927;-60
2024/02/15 11:10:10;;;;;;;6.60;3.17;;;23.50;57.40;;;;;;6150057;22;87435;-61
2024/02/15 11:12:37;;;;;;;8.05;3.50;;;23.50;57.10;;;;;;6122144;22;88941;-61
2024/02/15 11:15:06;;;;;;;9.15;2.92;;;23.50;56.80;;;;;;6123684;22;89915;-61
2024/02/15 11:17:56;;;;;;;7.90;2.92;;;23.50;56.80;;;;;;6122461;22;88086;-61
2024/02/15 11:20:33;;;;;;;8.55;3.25;;;23.60;56.70;;;;;;6151525;22;86873;-59
2024/02/15 11:23:04;;;;;;;7.00;2.60;;;23.60;56.40;;;;;;6152002;22;87301;-61
2024/02/15 11:25:41;;;;;;;8.20;2.80;;;23.70;56.30;;;;;;6124468;22;88200;-63
2024/02/15 11:28:29;;;;;;;7.63;2.63;;;23.70;56.50;;;;;;6148991;22;88205;-61
2024/02/15 11:30:58;;;;;;;10.65;3.38;;;23.70;55.40;;;;;;6124913;22;87549;-61
2024/02/15 11:33:38;;;;;;;5.05;2.50;;;23.70;55.30;;;;;;6121814;22;87160;-61
2024/02/15 11:36:12;;;;;;;6.35;2.65;;;23.70;55.00;;;;;;6124901;22;89120;-61
2024/02/15 11:38:42;;;;;;;6.25;2.78;;;23.70;54.60;;;;;;6150554;22;88801;-61
2024/02/15 11:41:12;;;;;;;4.57;2.20;;;23.70;54.30;;;;;;6150453;22;88452;-62
2024/02/15 11:43:54;;;;;;;8.23;2.90;;;23.70;54.10;;;;;;6150952;22;87286;-62
2024/02/15 11:46:21;;;;;;;6.80;2.72;;;23.70;54.20;;;;;;6139716;22;88908;-61
2024/02/15 11:48:51;;;;;;;5.70;2.05;;;23.70;54.30;;;;;;6117275;22;88041;-62
2024/02/15 11:51:36;;;;;;;5.70;2.10;;;23.70;54.30;;;;;;6143669;22;88381;-61
2024/02/15 11:54:07;;;;;;;4.30;1.92;;;23.70;53.90;;;;;;6121208;22;88304;-62
2024/02/15 11:56:54;;;;;;;3.47;1.85;;;23.70;53.60;;;;;;6149067;22;88084;-60
2024/02/15 11:59:31;;;;;;;4.70;2.10;;;23.70;53.70;;;;;;6123454;22;88668;-62
2024/02/15 12:21:28;;;;;;;3.35;1.67;;;23.70;54.10;;;;;;6150059;22;87169;-61
2024/02/15 12:23:54;;;;;;;5.90;1.90;;;23.70;53.60;;;;;;6147456;22;87186;-62
2024/02/15 12:26:21;;;;;;;2.95;1.38;;;23.70;54.20;;;;;;6099645;22;87527;-60
2024/02/15 12:28:54;;;;;;;6.68;1.77;;;23.70;52.90;;;;;;6124163;22;89388;-61
2024/02/15 12:31:21;;;;;;;6.13;1.45;;;23.60;53.10;;;;;;6147850;22;88334;-61
2024/02/15 12:34:00;;;;;;;5.35;1.70;;;23.60;53.70;;;;;;6148818;22;88789;-61
2024/02/15 12:36:27;;;;;;;8.23;2.47;;;23.60;53.90;;;;;;6119551;22;87696;-61
2024/02/15 12:39:10;;;;;;;6.90;2.20;;;23.50;54.00;;;;;;6139118;22;88416;-60
2024/02/15 12:41:56;;;;;;;7.63;1.98;;;23.50;54.00;;;;;;6147246;22;88041;-61
2024/02/15 12:44:22;;;;;;;6.60;1.98;;;23.50;54.20;;;;;;6114786;22;87331;-61
2024/02/15 12:46:59;;;;;;;4.47;2.15;;;23.50;54.10;;;;;;6152618;22;87266;-61
2024/02/15 12:49:26;;;;;;;4.95;2.13;;;23.50;54.20;;;;;;6120209;22;93543;-61
2024/02/15 12:51:53;;;;;;;5.93;1.80;;;23.50;54.40;;;;;;6107871;22;88832;-61
2024/02/15 12:54:23;;;;;;;6.75;1.80;;;23.50;54.40;;;;;;6149783;22;86882;-61
2024/02/15 12:59:33;;;;;;;5.65;2.17;;;23.50;54.60;;;;;;6149505;22;88663;-61
2024/02/15 13:02:18;;;;;;;6.22;1.88;;;23.50;54.60;;;;;;6112041;22;89333;-61
2024/02/15 13:04:43;;;;;;;5.80;2.00;;;23.50;54.70;;;;;;6152598;22;87422;-60
2024/02/15 13:07:09;;;;;;;6.50;2.30;;;23.50;54.70;;;;;;6140262;22;87149;-60
2024/02/15 13:12:19;;;;;;;4.32;1.67;;;23.40;54.60;;;;;;6149468;22;87771;-61
2024/02/15 13:14:45;;;;;;;4.32;1.45;;;23.40;54.60;;;;;;6148373;22;87189;-61
2024/02/15 13:17:11;;;;;;;6.18;2.08;;;23.40;54.70;;;;;;6151100;22;86773;-60
2024/02/15 13:19:37;;;;;;;5.90;1.90;;;23.40;54.70;;;;;;6123485;22;89166;-61
2024/02/15 13:22:04;;;;;;;7.90;2.35;;;23.40;54.60;;;;;;6151008;22;87829;-61
2024/02/15 13:24:33;;;;;;;4.28;1.83;;;23.40;54.60;;;;;;6123968;22;89470;-61
2024/02/15 13:26:59;;;;;;;7.40;2.50;;;23.40;54.80;;;;;;6124043;22;87453;-60
2024/02/15 13:29:25;;;;;;;7.18;2.03;;;23.40;54.70;;;;;;6147710;22;87866;-60
2024/02/15 13:31:51;;;;;;;6.45;2.08;;;23.40;54.80;;;;;;6153781;22;88073;-61